sensor_id;sensor_type;location;lat;lon;timestamp;temperature;humidity
15676;DHT22;7938;47.666;9.434;2023-04-25T04:02:49;3.30;99.90
15676;DHT22;7938;47.666;9.434;2023-04-25T04:05:16;4.50;99.90
15676;DHT22;7938;47.666;9.434;2023-04-25T04:07:43;4.50;99.90
15676;DHT22;7938;47.666;9.434;2023-04-25T04:10:10;4.50;99.90
15676;DHT22;7938;47.666;9.434;2023-04-25T04:12:37;4.40;99.90
15676;DHT22;7938;47.666;9.434;2023-04-25T04:15:06;4.40;99.90
15676;DHT22;7938;47.666;9.434;2023-04-25T04:17:33;4.40;99.90
15676;DHT22;7938;47.666;9.434;2023-04-25T04:20:01;4.30;99.90
15676;DHT22;7938;47.666;9.434;2023-04-25T04:22:29;4.30;99.90
15676;DHT22;7938;47.666;9.434;2023-04-25T04:24:56;4.30;99.90
15676;DHT22;7938;47.666;9.434;2023-04-25T04:27:23;4.30;99.90
15676;DHT22;7938;47.666;9.434;2023-04-25T04:29:50;4.30;99.90
15676;DHT22;7938;47.666;9.434;2023-04-25T04:32:18;4.20;99.90
15676;DHT22;7938;47.666;9.434;2023-04-25T04:34:45;4.20;99.90
15676;DHT22;7938;47.666;9.434;2023-04-25T04:37:15;4.20;99.90
15676;DHT22;7938;47.666;9.434;2023-04-25T04:39:43;4.20;99.90
15676;DHT22;7938;47.666;9.434;2023-04-25T04:42:09;4.20;99.90
15676;DHT22;7938;47.666;9.434;2023-04-25T04:44:37;4.30;99.90
15676;DHT22;7938;47.666;9.434;2023-04-25T04:47:04;4.30;99.90
15676;DHT22;7938;47.666;9.434;2023-04-25T04:49:31;4.40;99.90
15676;DHT22;7938;47.666;9.434;2023-04-25T04:51:58;4.50;99.90
15676;DHT22;7938;47.666;9.434;2023-04-25T04:54:27;4.60;99.90
15676;DHT22;7938;47.666;9.434;2023-04-25T04:56:54;4.70;99.90
15676;DHT22;7938;47.666;9.434;2023-04-25T04:59:21;4.80;99.90
15676;DHT22;7938;47.666;9.434;2023-04-25T05:01:48;4.80;99.90
15676;DHT22;7938;47.666;9.434;2023-04-25T05:04:15;4.80;99.90
15676;DHT22;7938;47.666;9.434;2023-04-25T05:06:42;4.90;99.90
15676;DHT22;7938;47.666;9.434;2023-04-25T05:09:09;5.20;99.90
15676;DHT22;7938;47.666;9.434;2023-04-25T05:11:37;5.30;99.90
15676;DHT22;7938;47.666;9.434;2023-04-25T05:14:04;5.60;99.90
15676;DHT22;7938;47.666;9.434;2023-04-25T05:16:31;5.70;99.90
15676;DHT22;7938;47.666;9.434;2023-04-25T05:18:58;5.70;99.90
15676;DHT22;7938;47.666;9.434;2023-04-25T05:21:25;6.00;99.90
15676;DHT22;7938;47.666;9.434;2023-04-25T05:23:53;6.20;99.90
15676;DHT22;7938;47.666;9.434;2023-04-25T05:26:21;6.40;99.90
15676;DHT22;7938;47.666;9.434;2023-04-25T05:28:49;6.50;99.90
15676;DHT22;7938;47.666;9.434;2023-04-25T05:31:16;6.60;99.90
15676;DHT22;7938;47.666;9.434;2023-04-25T05:33:43;6.70;99.90
15676;DHT22;7938;47.666;9.434;2023-04-25T05:36:10;6.60;99.90
15676;DHT22;7938;47.666;9.434;2023-04-25T05:38:37;6.70;99.90
15676;DHT22;7938;47.666;9.434;2023-04-25T05:41:04;6.70;99.90
15676;DHT22;7938;47.666;9.434;2023-04-25T05:43:30;6.60;99.90
15676;DHT22;7938;47.666;9.434;2023-04-25T05:45:59;6.90;99.90
15676;DHT22;7938;47.666;9.434;2023-04-25T05:48:26;7.00;99.90
15676;DHT22;7938;47.666;9.434;2023-04-25T05:50:52;7.10;99.90
15676;DHT22;7938;47.666;9.434;2023-04-25T05:53:20;7.20;99.90
15676;DHT22;7938;47.666;9.434;2023-04-25T05:55:47;7.30;99.90
15676;DHT22;7938;47.666;9.434;2023-04-25T05:58:14;7.60;99.90
15676;DHT22;7938;47.666;9.434;2023-04-25T06:00:41;8.10;99.90
15676;DHT22;7938;47.666;9.434;2023-04-25T06:03:09;8.20;99.90
15676;DHT22;7938;47.666;9.434;2023-04-25T06:05:36;8.40;99.90
15676;DHT22;7938;47.666;9.434;2023-04-25T06:08:03;8.60;99.90
15676;DHT22;7938;47.666;9.434;2023-04-25T06:10:30;8.60;99.90
15676;DHT22;7938;47.666;9.434;2023-04-25T06:12:57;8.70;99.90
15676;DHT22;7938;47.666;9.434;2023-04-25T06:15:24;8.80;99.90
15676;DHT22;7938;47.666;9.434;2023-04-25T06:17:51;8.80;99.90
15676;DHT22;7938;47.666;9.434;2023-04-25T06:20:19;8.70;99.90
15676;DHT22;7938;47.666;9.434;2023-04-25T06:22:48;8.70;99.90
15676;DHT22;7938;47.666;9.434;2023-04-25T06:25:15;8.90;99.90
15676;DHT22;7938;47.666;9.434;2023-04-25T06:27:42;8.90;99.90
15676;DHT22;7938;47.666;9.434;2023-04-25T06:30:10;9.10;99.90
15676;DHT22;7938;47.666;9.434;2023-04-25T06:32:37;9.30;99.90
15676;DHT22;7938;47.666;9.434;2023-04-25T06:35:05;9.60;99.90
15676;DHT22;7938;47.666;9.434;2023-04-25T06:37:33;9.80;99.90
15676;DHT22;7938;47.666;9.434;2023-04-25T06:40:00;10.00;99.90
15676;DHT22;7938;47.666;9.434;2023-04-25T06:42:28;10.30;99.90
15676;DHT22;7938;47.666;9.434;2023-04-25T06:44:54;10.40;99.90
15676;DHT22;7938;47.666;9.434;2023-04-25T06:47:21;10.40;99.90
15676;DHT22;7938;47.666;9.434;2023-04-25T06:49:48;10.30;99.90
15676;DHT22;7938;47.666;9.434;2023-04-25T06:52:15;10.20;99.90
15676;DHT22;7938;47.666;9.434;2023-04-25T06:54:44;10.20;99.90
15676;DHT22;7938;47.666;9.434;2023-04-25T06:57:11;10.40;99.90
15676;DHT22;7938;47.666;9.434;2023-04-25T06:59:38;10.40;99.90
15676;DHT22;7938;47.666;9.434;2023-04-25T07:02:05;10.70;99.90
15676;DHT22;7938;47.666;9.434;2023-04-25T07:04:32;10.50;99.90
15676;DHT22;7938;47.666;9.434;2023-04-25T07:06:59;10.30;99.90
15676;DHT22;7938;47.666;9.434;2023-04-25T07:09:28;10.10;99.90
15676;DHT22;7938;47.666;9.434;2023-04-25T07:11:56;10.10;99.90
15676;DHT22;7938;47.666;9.434;2023-04-25T07:14:23;10.10;99.90
15676;DHT22;7938;47.666;9.434;2023-04-25T07:16:50;10.30;99.90
15676;DHT22;7938;47.666;9.434;2023-04-25T07:19:17;10.50;99.90
15676;DHT22;7938;47.666;9.434;2023-04-25T07:21:44;10.50;99.90
15676;DHT22;7938;47.666;9.434;2023-04-25T07:24:11;10.30;99.90
15676;DHT22;7938;47.666;9.434;2023-04-25T07:26:38;10.20;99.90
15676;DHT22;7938;47.666;9.434;2023-04-25T07:29:06;10.00;99.90
15676;DHT22;7938;47.666;9.434;2023-04-25T07:31:33;9.80;99.90
15676;DHT22;7938;47.666;9.434;2023-04-25T07:34:00;9.80;99.90
15676;DHT22;7938;47.666;9.434;2023-04-25T07:36:27;9.60;99.90
15676;DHT22;7938;47.666;9.434;2023-04-25T07:38:54;9.60;99.90
15676;DHT22;7938;47.666;9.434;2023-04-25T07:41:20;9.50;99.90
15676;DHT22;7938;47.666;9.434;2023-04-25T07:43:48;9.50;99.90
15676;DHT22;7938;47.666;9.434;2023-04-25T07:46:16;9.30;99.90
15676;DHT22;7938;47.666;9.434;2023-04-25T07:48:43;9.30;99.90
15676;DHT22;7938;47.666;9.434;2023-04-25T07:51:10;9.20;99.90
15676;DHT22;7938;47.666;9.434;2023-04-25T07:53:37;9.10;99.90
15676;DHT22;7938;47.666;9.434;2023-04-25T07:56:04;9.00;99.90
15676;DHT22;7938;47.666;9.434;2023-04-25T07:58:31;8.60;99.90
15676;DHT22;7938;47.666;9.434;2023-04-25T08:00:58;8.30;99.90
15676;DHT22;7938;47.666;9.434;2023-04-25T08:03:26;7.90;99.90
15676;DHT22;7938;47.666;9.434;2023-04-25T08:05:53;7.70;99.90
15676;DHT22;7938;47.666;9.434;2023-04-25T08:08:21;7.60;99.90
15676;DHT22;7938;47.666;9.434;2023-04-25T08:10:48;7.50;99.90
15676;DHT22;7938;47.666;9.434;2023-04-25T08:13:14;7.40;99.90
15676;DHT22;7938;47.666;9.434;2023-04-25T08:15:41;7.40;99.90
15676;DHT22;7938;47.666;9.434;2023-04-25T08:18:08;7.40;99.90
15676;DHT22;7938;47.666;9.434;2023-04-25T08:20:37;7.40;99.90
15676;DHT22;7938;47.666;9.434;2023-04-25T08:23:03;7.30;99.90
15676;DHT22;7938;47.666;9.434;2023-04-25T08:25:30;7.30;99.90
15676;DHT22;7938;47.666;9.434;2023-04-25T08:27:57;7.40;99.90
15676;DHT22;7938;47.666;9.434;2023-04-25T08:30:25;7.50;99.90
15676;DHT22;7938;47.666;9.434;2023-04-25T08:32:52;7.50;99.90
15676;DHT22;7938;47.666;9.434;2023-04-25T08:35:19;7.50;99.90
15676;DHT22;7938;47.666;9.434;2023-04-25T08:37:48;7.50;99.90
15676;DHT22;7938;47.666;9.434;2023-04-25T08:40:15;7.50;99.90
15676;DHT22;7938;47.666;9.434;2023-04-25T08:42:42;7.50;99.90
15676;DHT22;7938;47.666;9.434;2023-04-25T08:45:10;7.60;99.90
15676;DHT22;7938;47.666;9.434;2023-04-25T08:47:38;7.30;99.90
15676;DHT22;7938;47.666;9.434;2023-04-25T08:50:07;7.20;99.90
15676;DHT22;7938;47.666;9.434;2023-04-25T08:52:37;7.10;99.90
15676;DHT22;7938;47.666;9.434;2023-04-25T08:55:09;6.90;99.90
15676;DHT22;7938;47.666;9.434;2023-04-25T08:57:38;6.90;99.90
15676;DHT22;7938;47.666;9.434;2023-04-25T09:00:07;6.80;99.90
15676;DHT22;7938;47.666;9.434;2023-04-25T09:02:34;6.80;99.90
15676;DHT22;7938;47.666;9.434;2023-04-25T09:05:02;6.90;99.90
15676;DHT22;7938;47.666;9.434;2023-04-25T09:07:29;7.00;99.90
15676;DHT22;7938;47.666;9.434;2023-04-25T09:09:56;7.20;99.90
15676;DHT22;7938;47.666;9.434;2023-04-25T09:12:27;7.30;99.90
15676;DHT22;7938;47.666;9.434;2023-04-25T09:15:06;7.40;99.90
15676;DHT22;7938;47.666;9.434;2023-04-25T09:17:33;7.60;99.90
15676;DHT22;7938;47.666;9.434;2023-04-25T09:20:08;7.60;99.90
15676;DHT22;7938;47.666;9.434;2023-04-25T09:22:37;7.90;99.90
15676;DHT22;7938;47.666;9.434;2023-04-25T09:25:07;7.60;99.90
15676;DHT22;7938;47.666;9.434;2023-04-25T09:27:36;7.60;99.90
15676;DHT22;7938;47.666;9.434;2023-04-25T09:30:16;7.60;99.90
15676;DHT22;7938;47.666;9.434;2023-04-25T09:32:43;7.60;99.90
15676;DHT22;7938;47.666;9.434;2023-04-25T09:35:10;7.60;99.90
15676;DHT22;7938;47.666;9.434;2023-04-25T09:37:40;7.60;99.90
15676;DHT22;7938;47.666;9.434;2023-04-25T09:40:07;7.50;99.90
15676;DHT22;7938;47.666;9.434;2023-04-25T09:42:41;7.50;99.90
15676;DHT22;7938;47.666;9.434;2023-04-25T09:45:12;7.50;99.90
15676;DHT22;7938;47.666;9.434;2023-04-25T09:47:40;7.60;99.90
15676;DHT22;7938;47.666;9.434;2023-04-25T09:50:14;7.70;99.90
15676;DHT22;7938;47.666;9.434;2023-04-25T09:52:41;7.70;99.90
15676;DHT22;7938;47.666;9.434;2023-04-25T09:55:08;7.70;99.90
15676;DHT22;7938;47.666;9.434;2023-04-25T09:57:37;7.70;99.90
15676;DHT22;7938;47.666;9.434;2023-04-25T10:00:06;7.90;99.90
15676;DHT22;7938;47.666;9.434;2023-04-25T10:02:38;8.40;99.90
15676;DHT22;7938;47.666;9.434;2023-04-25T10:05:09;8.70;99.90
15676;DHT22;7938;47.666;9.434;2023-04-25T10:07:36;8.90;99.90
15676;DHT22;7938;47.666;9.434;2023-04-25T10:10:05;9.20;99.90
15676;DHT22;7938;47.666;9.434;2023-04-25T10:12:33;9.10;99.90
15676;DHT22;7938;47.666;9.434;2023-04-25T10:15:03;9.20;99.90
15676;DHT22;7938;47.666;9.434;2023-04-25T10:17:31;9.30;99.90
15676;DHT22;7938;47.666;9.434;2023-04-25T10:20:00;9.40;99.90
15676;DHT22;7938;47.666;9.434;2023-04-25T10:22:32;9.60;99.90
15676;DHT22;7938;47.666;9.434;2023-04-25T10:25:01;9.60;99.90
15676;DHT22;7938;47.666;9.434;2023-04-25T10:27:30;9.70;99.90
15676;DHT22;7938;47.666;9.434;2023-04-25T10:30:06;9.60;99.90
15676;DHT22;7938;47.666;9.434;2023-04-25T10:32:35;9.40;99.90
15676;DHT22;7938;47.666;9.434;2023-04-25T10:35:13;9.40;99.90
15676;DHT22;7938;47.666;9.434;2023-04-25T10:37:59;9.30;99.90
15676;DHT22;7938;47.666;9.434;2023-04-25T10:40:26;9.20;99.90
15676;DHT22;7938;47.666;9.434;2023-04-25T10:42:54;9.20;99.90
15676;DHT22;7938;47.666;9.434;2023-04-25T10:45:23;9.40;99.90
15676;DHT22;7938;47.666;9.434;2023-04-25T10:47:50;9.80;99.90
15676;DHT22;7938;47.666;9.434;2023-04-25T10:50:17;9.90;99.90
15676;DHT22;7938;47.666;9.434;2023-04-25T10:52:44;10.10;99.90
15676;DHT22;7938;47.666;9.434;2023-04-25T10:55:11;10.10;99.90
15676;DHT22;7938;47.666;9.434;2023-04-25T10:57:39;10.50;99.90
15676;DHT22;7938;47.666;9.434;2023-04-25T11:00:12;10.60;99.90
15676;DHT22;7938;47.666;9.434;2023-04-25T11:02:47;11.10;99.90
15676;DHT22;7938;47.666;9.434;2023-04-25T11:05:23;11.30;99.90
15676;DHT22;7938;47.666;9.434;2023-04-25T11:07:54;11.40;99.90
15676;DHT22;7938;47.666;9.434;2023-04-25T11:10:25;11.40;99.90
15676;DHT22;7938;47.666;9.434;2023-04-25T11:12:52;11.10;99.90
15676;DHT22;7938;47.666;9.434;2023-04-25T11:15:19;11.10;99.90
15676;DHT22;7938;47.666;9.434;2023-04-25T11:17:48;10.90;99.90
15676;DHT22;7938;47.666;9.434;2023-04-25T11:20:15;10.60;99.90
15676;DHT22;7938;47.666;9.434;2023-04-25T11:22:44;10.20;99.90
15676;DHT22;7938;47.666;9.434;2023-04-25T11:25:12;10.20;99.90
15676;DHT22;7938;47.666;9.434;2023-04-25T11:27:49;9.80;99.90
15676;DHT22;7938;47.666;9.434;2023-04-25T11:30:17;9.80;99.90
15676;DHT22;7938;47.666;9.434;2023-04-25T11:32:44;9.90;99.90
15676;DHT22;7938;47.666;9.434;2023-04-25T11:35:12;10.00;99.90
15676;DHT22;7938;47.666;9.434;2023-04-25T11:37:41;10.20;99.90
15676;DHT22;7938;47.666;9.434;2023-04-25T11:40:09;10.30;99.90
15676;DHT22;7938;47.666;9.434;2023-04-25T11:42:37;10.40;99.90
15676;DHT22;7938;47.666;9.434;2023-04-25T11:45:05;10.40;99.90
15676;DHT22;7938;47.666;9.434;2023-04-25T11:47:33;10.40;99.90
15676;DHT22;7938;47.666;9.434;2023-04-25T11:50:01;10.60;99.90
15676;DHT22;7938;47.666;9.434;2023-04-25T11:52:40;10.80;99.90
15676;DHT22;7938;47.666;9.434;2023-04-25T11:55:08;11.10;99.90
15676;DHT22;7938;47.666;9.434;2023-04-25T11:57:37;11.60;99.90
15676;DHT22;7938;47.666;9.434;2023-04-25T12:00:11;11.90;99.90
15676;DHT22;7938;47.666;9.434;2023-04-25T12:02:42;12.10;99.90
15676;DHT22;7938;47.666;9.434;2023-04-25T12:05:10;12.10;99.90
15676;DHT22;7938;47.666;9.434;2023-04-25T12:07:39;12.50;99.90
15676;DHT22;7938;47.666;9.434;2023-04-25T12:10:08;12.60;99.90
15676;DHT22;7938;47.666;9.434;2023-04-25T12:12:36;12.10;99.90
15676;DHT22;7938;47.666;9.434;2023-04-25T12:15:14;11.40;99.90
15676;DHT22;7938;47.666;9.434;2023-04-25T12:17:45;11.10;99.90
15676;DHT22;7938;47.666;9.434;2023-04-25T12:20:13;10.60;99.90
15676;DHT22;7938;47.666;9.434;2023-04-25T12:22:42;9.70;99.90
15676;DHT22;7938;47.666;9.434;2023-04-25T12:25:11;9.20;99.90
15676;DHT22;7938;47.666;9.434;2023-04-25T12:27:39;9.10;99.90
15676;DHT22;7938;47.666;9.434;2023-04-25T12:30:08;9.30;99.90
15676;DHT22;7938;47.666;9.434;2023-04-25T12:32:36;10.50;99.90
15676;DHT22;7938;47.666;9.434;2023-04-25T12:35:03;9.90;99.90
15676;DHT22;7938;47.666;9.434;2023-04-25T12:37:32;9.80;99.90
15676;DHT22;7938;47.666;9.434;2023-04-25T12:40:00;9.70;99.90
15676;DHT22;7938;47.666;9.434;2023-04-25T12:42:27;9.20;99.90
15676;DHT22;7938;47.666;9.434;2023-04-25T12:44:53;9.00;99.90
15676;DHT22;7938;47.666;9.434;2023-04-25T12:47:20;8.90;99.90
15676;DHT22;7938;47.666;9.434;2023-04-25T12:49:47;8.80;99.90
15676;DHT22;7938;47.666;9.434;2023-04-25T12:52:14;8.80;99.90
15676;DHT22;7938;47.666;9.434;2023-04-25T12:54:41;9.10;99.90
15676;DHT22;7938;47.666;9.434;2023-04-25T12:57:09;9.30;99.90
15676;DHT22;7938;47.666;9.434;2023-04-25T12:59:39;9.40;99.90
15676;DHT22;7938;47.666;9.434;2023-04-25T13:02:06;9.50;99.90
15676;DHT22;7938;47.666;9.434;2023-04-25T13:04:33;9.60;99.90
15676;DHT22;7938;47.666;9.434;2023-04-25T13:07:00;9.90;99.90
15676;DHT22;7938;47.666;9.434;2023-04-25T13:09:27;10.20;99.90
15676;DHT22;7938;47.666;9.434;2023-04-25T13:11:54;10.40;99.90
15676;DHT22;7938;47.666;9.434;2023-04-25T13:14:22;10.50;99.90
15676;DHT22;7938;47.666;9.434;2023-04-25T13:16:49;10.60;99.90
15676;DHT22;7938;47.666;9.434;2023-04-25T13:19:16;10.60;99.90
15676;DHT22;7938;47.666;9.434;2023-04-25T13:21:43;10.70;99.90
15676;DHT22;7938;47.666;9.434;2023-04-25T13:24:10;10.50;99.90
15676;DHT22;7938;47.666;9.434;2023-04-25T13:26:37;10.60;99.90
15676;DHT22;7938;47.666;9.434;2023-04-25T13:29:04;10.70;99.90
15676;DHT22;7938;47.666;9.434;2023-04-25T13:31:32;10.90;99.90
15676;DHT22;7938;47.666;9.434;2023-04-25T13:33:59;11.20;99.90
15676;DHT22;7938;47.666;9.434;2023-04-25T13:36:26;11.50;99.90
15676;DHT22;7938;47.666;9.434;2023-04-25T13:38:53;11.60;99.90
15676;DHT22;7938;47.666;9.434;2023-04-25T13:41:20;11.80;99.90
15676;DHT22;7938;47.666;9.434;2023-04-25T13:43:47;12.00;99.90
15676;DHT22;7938;47.666;9.434;2023-04-25T13:46:14;12.30;99.90
15676;DHT22;7938;47.666;9.434;2023-04-25T13:48:43;12.60;99.90
15676;DHT22;7938;47.666;9.434;2023-04-25T13:51:13;12.60;99.90
15676;DHT22;7938;47.666;9.434;2023-04-25T13:53:41;12.80;99.90
15676;DHT22;7938;47.666;9.434;2023-04-25T13:56:08;12.60;99.90
15676;DHT22;7938;47.666;9.434;2023-04-25T13:58:36;12.60;99.90
15676;DHT22;7938;47.666;9.434;2023-04-25T14:01:03;13.00;99.90
15676;DHT22;7938;47.666;9.434;2023-04-25T14:03:30;13.00;99.90
15676;DHT22;7938;47.666;9.434;2023-04-25T14:05:59;13.00;99.90
15676;DHT22;7938;47.666;9.434;2023-04-25T14:08:26;12.40;99.90
15676;DHT22;7938;47.666;9.434;2023-04-25T14:10:54;12.20;99.90
15676;DHT22;7938;47.666;9.434;2023-04-25T14:13:21;12.20;99.90
15676;DHT22;7938;47.666;9.434;2023-04-25T14:15:49;12.80;99.90
15676;DHT22;7938;47.666;9.434;2023-04-25T14:18:17;13.50;99.90
15676;DHT22;7938;47.666;9.434;2023-04-25T14:20:44;13.40;99.90
15676;DHT22;7938;47.666;9.434;2023-04-25T14:23:12;13.40;99.90
15676;DHT22;7938;47.666;9.434;2023-04-25T14:25:39;13.90;99.90
15676;DHT22;7938;47.666;9.434;2023-04-25T14:28:07;13.50;99.90
15676;DHT22;7938;47.666;9.434;2023-04-25T14:30:34;12.70;99.90
15676;DHT22;7938;47.666;9.434;2023-04-25T14:33:01;12.70;99.90
15676;DHT22;7938;47.666;9.434;2023-04-25T14:35:28;12.80;99.90
15676;DHT22;7938;47.666;9.434;2023-04-25T14:37:55;13.20;99.90
15676;DHT22;7938;47.666;9.434;2023-04-25T14:40:23;13.30;99.90
15676;DHT22;7938;47.666;9.434;2023-04-25T14:42:50;12.70;99.90
15676;DHT22;7938;47.666;9.434;2023-04-25T14:45:17;12.10;99.90
15676;DHT22;7938;47.666;9.434;2023-04-25T14:47:44;12.00;99.90
15676;DHT22;7938;47.666;9.434;2023-04-25T14:50:11;11.90;99.90
15676;DHT22;7938;47.666;9.434;2023-04-25T14:52:38;11.60;99.90
15676;DHT22;7938;47.666;9.434;2023-04-25T14:55:06;11.40;99.90
15676;DHT22;7938;47.666;9.434;2023-04-25T14:57:34;11.20;99.90
15676;DHT22;7938;47.666;9.434;2023-04-25T15:00:02;11.10;99.90
15676;DHT22;7938;47.666;9.434;2023-04-25T15:02:30;11.00;99.90
15676;DHT22;7938;47.666;9.434;2023-04-25T15:04:57;10.80;99.90
15676;DHT22;7938;47.666;9.434;2023-04-25T15:07:25;10.60;99.90
15676;DHT22;7938;47.666;9.434;2023-04-25T15:09:52;10.60;99.90
15676;DHT22;7938;47.666;9.434;2023-04-25T15:12:21;10.60;99.90
15676;DHT22;7938;47.666;9.434;2023-04-25T15:14:49;10.90;99.90
15676;DHT22;7938;47.666;9.434;2023-04-25T15:17:17;11.40;99.90
15676;DHT22;7938;47.666;9.434;2023-04-25T15:19:44;12.70;99.90
15676;DHT22;7938;47.666;9.434;2023-04-25T15:22:10;14.20;99.90
15676;DHT22;7938;47.666;9.434;2023-04-25T15:24:37;14.60;99.90
15676;DHT22;7938;47.666;9.434;2023-04-25T15:27:04;14.40;99.90
15676;DHT22;7938;47.666;9.434;2023-04-25T15:29:32;14.60;98.80
15676;DHT22;7938;47.666;9.434;2023-04-25T15:32:00;14.30;98.80
15676;DHT22;7938;47.666;9.434;2023-04-25T15:34:28;13.80;99.60
15676;DHT22;7938;47.666;9.434;2023-04-25T15:36:55;13.10;99.90
15676;DHT22;7938;47.666;9.434;2023-04-25T15:39:24;12.60;99.60
15676;DHT22;7938;47.666;9.434;2023-04-25T15:41:51;12.60;99.90
15676;DHT22;7938;47.666;9.434;2023-04-25T15:44:18;12.50;99.90
15676;DHT22;7938;47.666;9.434;2023-04-25T15:46:44;12.30;99.90
15676;DHT22;7938;47.666;9.434;2023-04-25T15:49:13;12.40;99.90
15676;DHT22;7938;47.666;9.434;2023-04-25T15:51:40;12.40;99.90
15676;DHT22;7938;47.666;9.434;2023-04-25T15:54:07;12.60;99.30
15676;DHT22;7938;47.666;9.434;2023-04-25T15:56:34;13.20;99.70
15676;DHT22;7938;47.666;9.434;2023-04-25T15:59:01;14.70;99.20
15676;DHT22;7938;47.666;9.434;2023-04-25T16:01:28;16.00;96.00
15676;DHT22;7938;47.666;9.434;2023-04-25T16:03:55;15.80;95.90
15676;DHT22;7938;47.666;9.434;2023-04-25T16:06:25;14.70;96.80
15676;DHT22;7938;47.666;9.434;2023-04-25T16:08:53;14.20;96.80
15676;DHT22;7938;47.666;9.434;2023-04-25T16:11:20;14.50;98.20
15676;DHT22;7938;47.666;9.434;2023-04-25T16:13:47;16.70;97.60
15676;DHT22;7938;47.666;9.434;2023-04-25T16:16:14;19.40;94.10
15676;DHT22;7938;47.666;9.434;2023-04-25T16:18:41;21.60;91.20
15676;DHT22;7938;47.666;9.434;2023-04-25T16:21:08;22.20;85.60
15676;DHT22;7938;47.666;9.434;2023-04-25T16:23:37;22.50;86.60
15676;DHT22;7938;47.666;9.434;2023-04-25T16:26:04;19.30;87.60
15676;DHT22;7938;47.666;9.434;2023-04-25T16:28:33;18.00;91.10
15676;DHT22;7938;47.666;9.434;2023-04-25T16:31:00;16.20;93.00
15676;DHT22;7938;47.666;9.434;2023-04-25T16:33:27;14.90;95.80
15676;DHT22;7938;47.666;9.434;2023-04-25T16:35:54;13.30;97.70
15676;DHT22;7938;47.666;9.434;2023-04-25T16:38:21;12.60;99.20
15676;DHT22;7938;47.666;9.434;2023-04-25T16:40:49;11.30;99.90
15676;DHT22;7938;47.666;9.434;2023-04-25T16:43:16;11.20;99.90
15676;DHT22;7938;47.666;9.434;2023-04-25T16:45:45;10.70;99.90
15676;DHT22;7938;47.666;9.434;2023-04-25T16:48:11;10.60;99.90
15676;DHT22;7938;47.666;9.434;2023-04-25T16:50:38;10.10;99.90
15676;DHT22;7938;47.666;9.434;2023-04-25T16:53:05;10.10;99.90
15676;DHT22;7938;47.666;9.434;2023-04-25T16:55:32;9.80;99.90
15676;DHT22;7938;47.666;9.434;2023-04-25T16:58:01;9.60;99.90
15676;DHT22;7938;47.666;9.434;2023-04-25T17:00:27;9.30;99.90
15676;DHT22;7938;47.666;9.434;2023-04-25T17:02:54;9.30;99.90
15676;DHT22;7938;47.666;9.434;2023-04-25T17:05:21;9.00;99.90
15676;DHT22;7938;47.666;9.434;2023-04-25T17:07:48;8.60;99.90
15676;DHT22;7938;47.666;9.434;2023-04-25T17:10:16;8.30;99.90
15676;DHT22;7938;47.666;9.434;2023-04-25T17:12:43;8.10;99.90
15676;DHT22;7938;47.666;9.434;2023-04-25T17:15:13;8.00;99.90
15676;DHT22;7938;47.666;9.434;2023-04-25T17:17:40;7.90;99.90
15676;DHT22;7938;47.666;9.434;2023-04-25T17:20:07;7.90;99.90
15676;DHT22;7938;47.666;9.434;2023-04-25T17:22:35;7.80;99.90
15676;DHT22;7938;47.666;9.434;2023-04-25T17:25:03;7.80;99.90
15676;DHT22;7938;47.666;9.434;2023-04-25T17:27:31;7.70;99.90
15676;DHT22;7938;47.666;9.434;2023-04-25T17:29:58;7.70;99.90
15676;DHT22;7938;47.666;9.434;2023-04-25T17:32:27;7.70;99.90
15676;DHT22;7938;47.666;9.434;2023-04-25T17:34:54;7.70;99.90
15676;DHT22;7938;47.666;9.434;2023-04-25T17:37:21;7.70;99.90
15676;DHT22;7938;47.666;9.434;2023-04-25T17:39:51;7.60;99.90
15676;DHT22;7938;47.666;9.434;2023-04-25T17:42:18;7.60;99.90
15676;DHT22;7938;47.666;9.434;2023-04-25T17:44:45;7.60;99.90
15676;DHT22;7938;47.666;9.434;2023-04-25T17:47:12;7.50;99.90
15676;DHT22;7938;47.666;9.434;2023-04-25T17:49:40;7.40;99.90
15676;DHT22;7938;47.666;9.434;2023-04-25T17:52:07;7.50;99.90
15676;DHT22;7938;47.666;9.434;2023-04-25T17:54:34;7.50;99.90
15676;DHT22;7938;47.666;9.434;2023-04-25T17:57:01;7.50;99.90
15676;DHT22;7938;47.666;9.434;2023-04-25T17:59:29;7.50;99.90
15676;DHT22;7938;47.666;9.434;2023-04-25T18:01:56;7.50;99.90
15676;DHT22;7938;47.666;9.434;2023-04-25T18:04:24;7.50;99.90
15676;DHT22;7938;47.666;9.434;2023-04-25T18:06:53;7.50;99.90
15676;DHT22;7938;47.666;9.434;2023-04-25T18:09:20;7.50;99.90
15676;DHT22;7938;47.666;9.434;2023-04-25T18:11:49;7.30;99.90
15676;DHT22;7938;47.666;9.434;2023-04-25T18:14:17;7.10;99.90
15676;DHT22;7938;47.666;9.434;2023-04-25T18:16:46;7.20;99.90
15676;DHT22;7938;47.666;9.434;2023-04-25T18:19:13;7.40;99.90
15676;DHT22;7938;47.666;9.434;2023-04-25T18:21:46;7.30;99.90
15676;DHT22;7938;47.666;9.434;2023-04-25T18:24:14;7.20;99.90
15676;DHT22;7938;47.666;9.434;2023-04-25T18:26:42;7.20;99.90
15676;DHT22;7938;47.666;9.434;2023-04-25T18:29:11;7.30;99.90
15676;DHT22;7938;47.666;9.434;2023-04-25T18:31:39;7.30;99.90
15676;DHT22;7938;47.666;9.434;2023-04-25T18:34:06;7.30;99.90
15676;DHT22;7938;47.666;9.434;2023-04-25T18:36:33;7.30;99.90
15676;DHT22;7938;47.666;9.434;2023-04-25T18:39:01;7.80;99.90
15676;DHT22;7938;47.666;9.434;2023-04-25T18:41:33;7.30;99.90
15676;DHT22;7938;47.666;9.434;2023-04-25T18:44:00;7.30;99.90
15676;DHT22;7938;47.666;9.434;2023-04-25T18:46:30;7.30;99.90
15676;DHT22;7938;47.666;9.434;2023-04-25T18:48:57;7.20;99.90
15676;DHT22;7938;47.666;9.434;2023-04-25T18:51:25;7.20;99.90
15676;DHT22;7938;47.666;9.434;2023-04-25T18:53:54;7.20;99.90
15676;DHT22;7938;47.666;9.434;2023-04-25T18:56:21;7.20;99.90
15676;DHT22;7938;47.666;9.434;2023-04-25T18:58:52;7.10;99.90
15676;DHT22;7938;47.666;9.434;2023-04-25T19:01:19;7.20;99.90
15676;DHT22;7938;47.666;9.434;2023-04-25T19:03:46;7.20;99.90
15676;DHT22;7938;47.666;9.434;2023-04-25T19:06:19;7.30;99.90
15676;DHT22;7938;47.666;9.434;2023-04-25T19:08:48;7.20;99.90
15676;DHT22;7938;47.666;9.434;2023-04-25T19:11:16;7.30;99.90
15676;DHT22;7938;47.666;9.434;2023-04-25T19:13:43;7.20;99.90
15676;DHT22;7938;47.666;9.434;2023-04-25T19:16:12;7.20;99.90
15676;DHT22;7938;47.666;9.434;2023-04-25T19:18:39;7.20;99.90
15676;DHT22;7938;47.666;9.434;2023-04-25T19:21:06;7.30;99.90
15676;DHT22;7938;47.666;9.434;2023-04-25T19:23:33;7.30;99.90
15676;DHT22;7938;47.666;9.434;2023-04-25T19:26:00;7.30;99.90
15676;DHT22;7938;47.666;9.434;2023-04-25T19:28:27;7.30;99.90
15676;DHT22;7938;47.666;9.434;2023-04-25T19:30:55;7.20;99.90
15676;DHT22;7938;47.666;9.434;2023-04-25T19:33:23;7.30;99.90
15676;DHT22;7938;47.666;9.434;2023-04-25T19:35:51;7.30;99.90
15676;DHT22;7938;47.666;9.434;2023-04-25T19:38:18;7.20;99.90
15676;DHT22;7938;47.666;9.434;2023-04-25T19:40:44;7.30;99.90
15676;DHT22;7938;47.666;9.434;2023-04-25T19:43:11;7.30;99.90
15676;DHT22;7938;47.666;9.434;2023-04-25T19:45:38;7.30;99.90
15676;DHT22;7938;47.666;9.434;2023-04-25T19:48:05;7.30;99.90
15676;DHT22;7938;47.666;9.434;2023-04-25T19:50:36;7.00;99.90
15676;DHT22;7938;47.666;9.434;2023-04-25T19:53:03;6.90;99.90
15676;DHT22;7938;47.666;9.434;2023-04-25T19:55:29;6.90;99.90
15676;DHT22;7938;47.666;9.434;2023-04-25T19:57:57;7.00;99.90
15676;DHT22;7938;47.666;9.434;2023-04-25T20:00:24;6.90;99.90